createdAt,value
2018-09-01T00:02:26.432Z,4.23
2018-09-01T00:04:53.692Z,3.87
2018-09-01T00:07:21.019Z,4.10
2018-09-01T00:09:48.226Z,4.10
2018-09-01T00:12:15.495Z,4.77
2018-09-01T00:14:42.792Z,3.73
2018-09-01T00:17:14.660Z,3.87
2018-09-01T00:19:41.899Z,3.83
2018-09-01T00:22:09.158Z,4.43
2018-09-01T00:24:36.407Z,3.73
2018-09-01T00:27:03.651Z,3.60
2018-09-01T00:29:30.908Z,4.47
2018-09-01T00:31:58.234Z,4.33
2018-09-01T00:34:25.549Z,3.27
2018-09-01T00:36:52.788Z,3.80
2018-09-01T00:39:20.037Z,3.60
2018-09-01T00:41:47.307Z,3.10
2018-09-01T00:44:14.572Z,3.00
2018-09-01T00:46:41.859Z,3.00
2018-09-01T00:49:09.130Z,3.07
2018-09-01T00:51:36.374Z,3.00
2018-09-01T00:54:03.647Z,2.60
2018-09-01T00:56:30.927Z,3.73
2018-09-01T00:58:58.221Z,3.13
2018-09-01T01:01:25.485Z,3.43
2018-09-01T01:03:52.767Z,3.30
2018-09-01T01:06:20.003Z,2.83
2018-09-01T01:08:47.260Z,2.87
2018-09-01T01:11:16.009Z,2.87
2018-09-01T01:13:43.406Z,2.60
2018-09-01T01:16:10.716Z,2.90
2018-09-01T01:18:38.029Z,3.10
2018-09-01T01:21:05.294Z,2.53
2018-09-01T01:23:32.561Z,2.50
2018-09-01T01:25:59.852Z,3.00
2018-09-01T01:28:27.104Z,2.90
2018-09-01T01:30:54.380Z,2.80
2018-09-01T01:33:21.611Z,2.93
2018-09-01T01:35:48.856Z,3.43
2018-09-01T01:38:16.091Z,3.30
2018-09-01T01:40:43.333Z,2.60
2018-09-01T01:43:10.587Z,2.90
2018-09-01T01:45:37.841Z,3.20
2018-09-01T01:48:05.320Z,2.73
2018-09-01T01:50:32.562Z,2.65
2018-09-01T01:52:59.792Z,3.50
2018-09-01T01:55:27.034Z,2.62
2018-09-01T01:57:54.289Z,3.10
2018-09-01T02:00:21.532Z,2.50
2018-09-01T02:02:48.905Z,2.10
2018-09-01T02:05:17.228Z,3.08
2018-09-01T02:07:44.999Z,2.90
2018-09-01T02:10:12.580Z,2.80
2018-09-01T02:12:39.910Z,3.00
2018-09-01T02:15:07.223Z,2.98
2018-09-01T02:17:34.603Z,2.85
2018-09-01T02:20:02.593Z,2.52
2018-09-01T02:22:30.220Z,2.75
2018-09-01T02:24:57.452Z,2.60
2018-09-01T02:27:24.723Z,2.50
2018-09-01T02:29:52.059Z,2.98
2018-09-01T02:32:19.317Z,2.83
2018-09-01T02:34:46.559Z,2.52
2018-09-01T02:37:14.023Z,3.27
2018-09-01T02:39:41.269Z,3.05
2018-09-01T02:42:08.582Z,2.92
2018-09-01T02:44:35.831Z,2.95
2018-09-01T02:47:03.084Z,2.77
2018-09-01T02:49:30.937Z,2.53
2018-09-01T02:51:58.172Z,2.75
2018-09-01T02:54:25.408Z,2.67
2018-09-01T02:56:52.765Z,3.37
2018-09-01T02:59:20.020Z,2.95
2018-09-01T03:01:47.267Z,2.83
2018-09-01T03:04:14.545Z,2.77
2018-09-01T03:06:49.654Z,2.95
2018-09-01T03:09:17.231Z,3.15
2018-09-01T03:11:44.679Z,2.72
2018-09-01T03:14:12.126Z,2.77
2018-09-01T03:16:39.602Z,2.80
2018-09-01T03:19:07.565Z,3.12
2018-09-01T03:21:35.012Z,3.60
2018-09-01T03:24:02.265Z,3.08
2018-09-01T03:26:29.726Z,2.77
2018-09-01T03:28:57.151Z,2.83
2018-09-01T03:31:24.648Z,2.98
2018-09-01T03:33:52.226Z,2.85
2018-09-01T03:36:19.689Z,2.92
2018-09-01T03:38:47.084Z,2.72
2018-09-01T03:41:14.584Z,3.20
2018-09-01T03:43:42.071Z,3.10
2018-09-01T03:46:09.696Z,3.02
2018-09-01T03:48:37.384Z,3.42
2018-09-01T03:51:05.171Z,3.25
2018-09-01T03:53:32.392Z,3.47
2018-09-01T03:55:59.844Z,2.87
2018-09-01T03:58:27.295Z,2.62
2018-09-01T04:00:55.069Z,2.92
2018-09-01T04:03:29.467Z,3.00
2018-09-01T04:05:56.808Z,3.10
2018-09-01T04:08:24.096Z,3.22
2018-09-01T04:10:51.385Z,2.85
2018-09-01T04:13:18.608Z,3.30
2018-09-01T04:15:45.834Z,3.35
2018-09-01T04:18:13.145Z,3.33
2018-09-01T04:20:40.401Z,3.00
2018-09-01T04:23:07.667Z,3.20
2018-09-01T04:25:34.938Z,3.42
2018-09-01T04:28:02.172Z,3.22
2018-09-01T04:30:29.461Z,3.50
2018-09-01T04:32:56.792Z,3.10
2018-09-01T04:35:24.146Z,2.95
2018-09-01T04:37:51.564Z,3.65
2018-09-01T04:40:18.792Z,3.20
2018-09-01T04:42:46.040Z,3.37
2018-09-01T04:45:13.284Z,3.10
2018-09-01T04:47:40.561Z,3.10
2018-09-01T04:50:07.895Z,3.55
2018-09-01T04:52:35.308Z,3.22
2018-09-01T04:55:02.549Z,3.62
2018-09-01T04:57:29.767Z,3.67
2018-09-01T04:59:57.792Z,3.72
2018-09-01T05:02:25.088Z,3.15
2018-09-01T05:04:52.356Z,3.45
2018-09-01T05:07:19.613Z,3.35
2018-09-01T05:09:46.917Z,3.30
2018-09-01T05:12:14.162Z,3.35
2018-09-01T05:14:41.392Z,3.47
2018-09-01T05:17:08.735Z,3.40
2018-09-01T05:19:36.012Z,3.17
2018-09-01T05:22:03.292Z,3.25
2018-09-01T05:24:30.556Z,3.98
2018-09-01T05:26:57.864Z,3.77
2018-09-01T05:29:25.105Z,3.75
2018-09-01T05:31:52.568Z,3.20
2018-09-01T05:34:19.999Z,3.77
2018-09-01T05:36:47.455Z,3.92
2018-09-01T05:39:14.881Z,3.70
2018-09-01T05:41:42.325Z,3.87
2018-09-01T05:44:09.916Z,3.85
2018-09-01T05:46:37.724Z,3.75
2018-09-01T05:49:05.034Z,4.35
2018-09-01T05:51:32.273Z,3.95
2018-09-01T05:53:59.515Z,4.05
2018-09-01T05:56:26.952Z,4.35
2018-09-01T05:58:54.420Z,4.37
2018-09-01T06:01:21.869Z,3.47
2018-09-01T06:03:49.379Z,4.70
2018-09-01T06:06:16.870Z,4.25
2018-09-01T06:08:44.283Z,3.75
2018-09-01T06:11:11.751Z,3.80
2018-09-01T06:13:39.208Z,4.42
2018-09-01T06:16:07.113Z,4.85
2018-09-01T06:18:34.567Z,5.20
2018-09-01T06:21:02.024Z,4.50
2018-09-01T06:23:29.492Z,5.40
2018-09-01T06:25:56.952Z,5.37
2018-09-01T06:28:29.656Z,5.05
2018-09-01T06:30:57.013Z,5.97
2018-09-01T06:33:24.348Z,5.75
2018-09-01T06:35:51.622Z,5.30
2018-09-01T06:38:18.914Z,5.78
2018-09-01T06:40:46.208Z,5.78
2018-09-01T06:43:13.476Z,6.28
2018-09-01T06:45:40.780Z,6.12
2018-09-01T06:48:08.105Z,6.50
2018-09-01T06:50:35.380Z,6.90
2018-09-01T06:53:03.225Z,7.00
2018-09-01T06:55:30.693Z,6.67
2018-09-01T06:57:58.200Z,6.97
2018-09-01T07:00:25.659Z,6.73
2018-09-01T07:02:54.928Z,6.33
2018-09-01T07:05:22.620Z,6.60
2018-09-01T07:07:50.174Z,6.80
2018-09-01T07:10:17.785Z,6.53
2018-09-01T07:12:45.241Z,6.20
2018-09-01T07:15:13.138Z,6.27
2018-09-01T07:17:40.844Z,6.67
2018-09-01T07:20:08.590Z,6.60
2018-09-01T07:22:36.132Z,5.80
2018-09-01T07:25:03.620Z,5.97
2018-09-01T07:27:31.092Z,6.10
2018-09-01T07:29:58.592Z,7.23
2018-09-01T07:32:26.068Z,5.83
2018-09-01T07:34:53.549Z,6.67
2018-09-01T07:37:21.060Z,5.90
2018-09-01T07:39:48.543Z,5.90
2018-09-01T07:42:16.016Z,5.43
2018-09-01T07:44:43.530Z,5.10
2018-09-01T07:47:11.068Z,5.03
2018-09-01T07:49:38.653Z,4.70
2018-09-01T07:52:06.319Z,4.77
2018-09-01T07:54:33.784Z,5.40
2018-09-01T07:57:01.309Z,3.70
2018-09-01T07:59:28.823Z,4.00
2018-09-01T08:01:56.360Z,5.37
2018-09-01T08:04:26.729Z,3.60
2018-09-01T08:06:57.950Z,3.77
2018-09-01T08:09:25.236Z,3.37
2018-09-01T08:11:52.570Z,3.10
2018-09-01T08:14:19.911Z,1.90
2018-09-01T08:16:47.627Z,1.97
2018-09-01T08:19:14.911Z,1.40
2018-09-01T08:21:42.203Z,1.63
2018-09-01T08:24:09.557Z,1.83
2018-09-01T08:26:36.955Z,1.50
2018-09-01T08:29:04.415Z,1.60
2018-09-01T08:31:32.353Z,2.23
2018-09-01T08:33:59.642Z,1.90
2018-09-01T08:36:26.989Z,1.90
2018-09-01T08:38:54.408Z,2.03
2018-09-01T08:41:21.714Z,2.07
2018-09-01T08:43:49.164Z,2.87
2018-09-01T08:46:16.444Z,2.53
2018-09-01T08:48:43.720Z,2.30
2018-09-01T08:51:11.048Z,2.17
2018-09-01T08:53:38.472Z,2.63
2018-09-01T08:56:06.096Z,2.10
2018-09-01T08:58:33.612Z,2.20
2018-09-01T09:01:01.116Z,2.60
2018-09-01T09:03:29.031Z,4.30
2018-09-01T09:05:56.591Z,1.83
2018-09-01T09:08:24.053Z,2.10
2018-09-01T09:13:53.706Z,1.80
2018-09-01T09:16:21.163Z,1.60
2018-09-01T09:18:48.596Z,1.60
2018-09-01T09:21:16.122Z,1.63
2018-09-01T09:23:43.559Z,1.43
2018-09-01T09:26:11.034Z,2.00
2018-09-01T09:28:38.512Z,1.63
2018-09-01T09:31:06.004Z,1.90
2018-09-01T09:33:33.432Z,1.30
2018-09-01T09:36:00.925Z,1.70
2018-09-01T09:38:28.344Z,1.43
2018-09-01T09:40:55.868Z,1.13
2018-09-01T09:43:23.334Z,1.77
2018-09-01T09:45:50.773Z,1.30
2018-09-01T09:48:18.192Z,1.80
2018-09-01T09:50:45.596Z,1.40
2018-09-01T09:53:13.000Z,1.20
2018-09-01T09:55:40.434Z,1.73
2018-09-01T09:58:08.005Z,1.70
2018-09-01T10:00:41.186Z,1.33
2018-09-01T10:03:08.684Z,1.60
2018-09-01T10:05:36.184Z,1.87
2018-09-01T10:08:03.646Z,2.30
2018-09-01T10:10:31.117Z,1.60
2018-09-01T10:12:58.548Z,1.30
2018-09-01T10:15:26.021Z,1.43
2018-09-01T10:17:53.461Z,1.53
2018-09-01T10:20:21.100Z,2.20
2018-09-01T10:22:48.404Z,2.70
2018-09-01T10:25:15.900Z,2.17
2018-09-01T10:27:43.368Z,1.63
2018-09-01T10:30:10.808Z,1.13
2018-09-01T10:32:38.380Z,1.20
2018-09-01T10:35:05.840Z,1.10
2018-09-01T10:37:33.300Z,1.20
2018-09-01T10:40:00.795Z,1.33
2018-09-01T10:42:28.580Z,1.30
2018-09-01T10:44:56.013Z,1.67
2018-09-01T10:47:23.540Z,1.50
2018-09-01T10:49:51.597Z,1.77
2018-09-01T10:52:19.300Z,1.33
2018-09-01T10:54:46.728Z,1.30
2018-09-01T10:57:14.128Z,1.57
2018-09-01T10:59:41.643Z,1.63
2018-09-01T11:02:09.162Z,1.40
2018-09-01T11:04:36.686Z,1.30
2018-09-01T11:07:04.148Z,1.80
2018-09-01T11:09:31.588Z,1.97
2018-09-01T11:11:58.991Z,1.30
2018-09-01T11:14:26.517Z,1.40
2018-09-01T11:16:54.079Z,2.40
2018-09-01T11:19:21.471Z,2.13
2018-09-01T11:21:49.112Z,1.30
2018-09-01T11:24:17.244Z,1.40
2018-09-01T11:26:44.791Z,1.57
2018-09-01T11:29:12.196Z,1.93
2018-09-01T11:31:39.685Z,2.00
2018-09-01T11:34:07.152Z,1.50
2018-09-01T11:36:34.818Z,2.07
2018-09-01T11:39:02.468Z,1.80
2018-09-01T11:41:29.906Z,2.00
2018-09-01T11:43:57.393Z,1.90
2018-09-01T11:46:24.926Z,1.90
2018-09-01T11:48:52.431Z,1.90
2018-09-01T11:51:19.896Z,1.40
2018-09-01T11:53:47.314Z,1.40
2018-09-01T11:56:14.758Z,6.27
2018-09-01T11:58:42.219Z,7.40
2018-09-01T12:01:09.718Z,2.00
2018-09-01T12:03:37.206Z,1.20
2018-09-01T12:06:04.747Z,1.37
2018-09-01T12:08:32.288Z,1.70
2018-09-01T12:10:59.778Z,1.50
2018-09-01T12:13:27.254Z,1.37
2018-09-01T12:15:54.878Z,1.13
2018-09-01T12:18:22.278Z,1.93
2018-09-01T12:20:50.174Z,1.40
2018-09-01T12:23:17.644Z,1.17
2018-09-01T12:25:45.120Z,1.50
2018-09-01T12:28:12.598Z,1.70
2018-09-01T12:30:40.083Z,1.70
2018-09-01T12:33:07.580Z,1.40
2018-09-01T12:35:35.043Z,1.50
2018-09-01T12:38:02.475Z,1.47
2018-09-01T12:40:29.912Z,1.70
2018-09-01T12:42:57.347Z,1.53
2018-09-01T12:45:24.887Z,1.40
2018-09-01T12:47:52.360Z,1.50
2018-09-01T12:50:19.796Z,1.30
2018-09-01T12:52:47.257Z,1.47
2018-09-01T12:55:14.699Z,1.40
2018-09-01T12:57:42.130Z,1.60
2018-09-01T13:00:09.754Z,1.40
2018-09-01T13:02:37.256Z,1.50
2018-09-01T13:05:05.008Z,1.43
2018-09-01T13:07:32.448Z,1.70
2018-09-01T13:09:59.892Z,1.33
2018-09-01T13:12:27.340Z,1.80
2018-09-01T13:14:54.817Z,1.53
2018-09-01T13:17:22.235Z,1.70
2018-09-01T13:19:49.709Z,1.40
2018-09-01T13:22:17.172Z,1.30
2018-09-01T13:24:44.628Z,1.50
2018-09-01T13:27:12.064Z,1.40
2018-09-01T13:29:39.548Z,1.40
2018-09-01T13:32:07.186Z,1.40
2018-09-01T13:34:34.680Z,1.53
2018-09-01T13:37:05.238Z,1.83
2018-09-01T13:39:32.668Z,1.30
2018-09-01T13:42:00.108Z,1.50
2018-09-01T13:44:27.568Z,1.80
2018-09-01T13:46:55.164Z,3.37
2018-09-01T13:49:27.231Z,3.33
2018-09-01T13:51:54.679Z,1.63
2018-09-01T13:54:22.147Z,1.50
2018-09-01T13:56:49.564Z,1.93
2018-09-01T13:59:16.988Z,1.70
2018-09-01T14:01:44.380Z,2.00
2018-09-01T14:04:11.824Z,2.00
2018-09-01T14:06:39.337Z,1.90
2018-09-01T14:09:08.265Z,2.10
2018-09-01T14:11:35.713Z,1.97
2018-09-01T14:14:03.153Z,5.20
2018-09-01T14:16:30.700Z,9.37
2018-09-01T14:18:58.173Z,2.30
2018-09-01T14:21:25.670Z,1.90
2018-09-01T14:23:53.082Z,1.53
2018-09-01T14:26:20.525Z,2.10
2018-09-01T14:28:47.966Z,2.00
2018-09-01T14:31:15.374Z,2.57
2018-09-01T14:33:42.783Z,2.10
2018-09-01T14:36:10.380Z,1.70
2018-09-01T14:38:37.988Z,2.90
2018-09-01T14:41:05.532Z,5.00
2018-09-01T14:43:32.980Z,2.10
2018-09-01T14:46:00.441Z,1.77
2018-09-01T14:48:27.884Z,1.90
2018-09-01T14:50:57.452Z,3.50
2018-09-01T14:53:25.012Z,1.63
2018-09-01T14:55:52.325Z,1.90
2018-09-01T14:58:19.753Z,1.90
2018-09-01T15:00:47.199Z,2.40
2018-09-01T15:03:14.636Z,2.37
2018-09-01T15:05:42.076Z,2.20
2018-09-01T15:08:09.602Z,2.47
2018-09-01T15:10:37.116Z,2.50
2018-09-01T15:13:04.584Z,2.27
2018-09-01T15:15:32.024Z,6.80
2018-09-01T15:17:59.493Z,3.73
2018-09-01T15:20:27.008Z,2.77
2018-09-01T15:22:54.477Z,4.30
2018-09-01T15:25:21.901Z,5.30
2018-09-01T15:27:49.340Z,2.80
2018-09-01T15:30:16.786Z,2.00
2018-09-01T15:32:44.293Z,1.40
2018-09-01T15:35:11.759Z,1.70
2018-09-01T15:37:39.199Z,2.83
2018-09-01T15:40:06.708Z,2.60
2018-09-01T15:42:34.156Z,3.00
2018-09-01T15:45:01.620Z,2.00
2018-09-01T15:47:29.068Z,3.10
2018-09-01T15:49:56.526Z,3.03
2018-09-01T15:52:24.025Z,11.10
2018-09-01T15:54:51.484Z,6.10
2018-09-01T15:57:18.972Z,17.87
2018-09-01T15:59:47.128Z,11.90
2018-09-01T16:02:14.577Z,4.83
2018-09-01T16:04:42.000Z,3.13
2018-09-01T16:07:09.448Z,3.40
2018-09-01T16:09:36.913Z,5.07
2018-09-01T16:12:04.379Z,3.03
2018-09-01T16:14:31.799Z,2.50
2018-09-01T16:16:59.236Z,2.00
2018-09-01T16:19:26.705Z,2.00
2018-09-01T16:21:54.689Z,1.30
2018-09-01T16:24:22.141Z,2.13
2018-09-01T16:26:49.752Z,1.60
2018-09-01T16:29:17.195Z,1.87
2018-09-01T16:31:44.620Z,2.00
2018-09-01T16:34:12.039Z,1.70
2018-09-01T16:36:39.509Z,1.47
2018-09-01T16:39:07.001Z,1.53
2018-09-01T16:41:34.446Z,1.60
2018-09-01T16:44:01.918Z,1.33
2018-09-01T16:46:29.361Z,1.57
2018-09-01T16:48:56.776Z,4.20
2018-09-01T16:51:24.288Z,4.27
2018-09-01T16:53:51.716Z,2.80
2018-09-01T16:56:19.156Z,2.40
2018-09-01T16:58:46.788Z,3.90
2018-09-01T17:01:14.909Z,4.40
2018-09-01T17:03:42.628Z,4.97
2018-09-01T17:06:10.140Z,8.73
2018-09-01T17:08:37.617Z,3.80
2018-09-01T17:11:05.072Z,2.20
2018-09-01T17:13:32.500Z,1.70
2018-09-01T17:15:59.912Z,2.07
2018-09-01T17:18:27.405Z,1.97
2018-09-01T17:20:54.876Z,2.00
2018-09-01T17:23:22.332Z,2.67
2018-09-01T17:25:49.793Z,1.70
2018-09-01T17:28:17.233Z,1.63
2018-09-01T17:30:44.923Z,1.87
2018-09-01T17:33:12.397Z,2.13
2018-09-01T17:35:39.851Z,2.00
2018-09-01T17:38:07.383Z,2.70
2018-09-01T17:40:34.607Z,2.73
2018-09-01T17:43:01.853Z,3.80
2018-09-01T17:45:29.073Z,3.63
2018-09-01T17:47:56.341Z,4.03
2018-09-01T17:50:23.583Z,3.33
2018-09-01T17:52:50.868Z,3.10
2018-09-01T17:55:18.140Z,3.30
2018-09-01T17:57:45.419Z,3.10
2018-09-01T18:00:12.640Z,2.70
2018-09-01T18:02:39.915Z,3.20
2018-09-01T18:05:07.164Z,2.40
2018-09-01T18:07:34.411Z,2.70
2018-09-01T18:10:01.657Z,2.23
2018-09-01T18:12:28.907Z,2.43
2018-09-01T18:14:56.204Z,2.60
2018-09-01T18:17:23.479Z,3.33
2018-09-01T18:19:50.711Z,3.23
2018-09-01T18:22:17.924Z,3.27
2018-09-01T18:24:48.536Z,3.40
2018-09-01T18:27:15.738Z,3.50
2018-09-01T18:29:42.944Z,4.10
2018-09-01T18:32:10.212Z,3.63
2018-09-01T18:34:37.541Z,4.10
2018-09-01T18:37:04.820Z,4.63
2018-09-01T18:39:32.051Z,4.83
2018-09-01T18:41:59.292Z,6.70
2018-09-01T18:44:26.547Z,6.07
2018-09-01T18:46:53.800Z,5.97
2018-09-01T18:49:21.009Z,6.07
2018-09-01T18:51:48.501Z,5.30
2018-09-01T18:54:15.773Z,3.97
2018-09-01T18:56:43.081Z,3.70
2018-09-01T18:59:10.423Z,3.07
2018-09-01T19:01:37.691Z,3.43
2018-09-01T19:04:04.924Z,3.27
2018-09-01T19:06:32.137Z,2.80
2018-09-01T19:08:59.375Z,3.43
2018-09-01T19:11:26.589Z,4.30
2018-09-01T19:13:53.862Z,4.83
2018-09-01T19:16:21.068Z,4.27
2018-09-01T19:18:48.304Z,4.40
2018-09-01T19:21:15.565Z,4.43
2018-09-01T19:23:42.692Z,4.23
2018-09-01T19:26:09.992Z,5.50
2018-09-01T19:28:37.321Z,4.47
2018-09-01T19:31:04.586Z,4.40
2018-09-01T19:33:31.820Z,3.63
2018-09-01T19:35:59.116Z,4.43
2018-09-01T19:38:26.350Z,3.57
2018-09-01T19:40:53.617Z,3.20
2018-09-01T19:43:20.843Z,4.17
2018-09-01T19:45:49.672Z,3.80
2018-09-01T19:48:16.916Z,4.90
2018-09-01T19:50:44.160Z,4.23
2018-09-01T19:53:11.382Z,5.53
2018-09-01T19:55:38.636Z,6.60
2018-09-01T19:58:05.892Z,6.90
2018-09-01T20:00:33.119Z,7.60
2018-09-01T20:03:00.320Z,7.27
2018-09-01T20:05:27.729Z,6.63
2018-09-01T20:07:54.944Z,6.90
2018-09-01T20:10:22.166Z,7.20
2018-09-01T20:12:49.393Z,7.20
2018-09-01T20:15:16.607Z,7.50
2018-09-01T20:17:43.848Z,6.43
2018-09-01T20:20:11.112Z,8.07
2018-09-01T20:22:38.452Z,6.63
2018-09-01T20:25:06.406Z,6.10
2018-09-01T20:27:33.581Z,5.87
2018-09-01T20:30:00.812Z,6.83
2018-09-01T20:32:28.016Z,5.97
2018-09-01T20:34:59.829Z,6.57
2018-09-01T20:37:27.051Z,6.23
2018-09-01T20:39:54.320Z,6.83
2018-09-01T20:42:21.554Z,6.67
2018-09-01T20:44:48.759Z,6.57
2018-09-01T20:47:15.985Z,6.70
2018-09-01T20:49:43.203Z,7.23
2018-09-01T20:52:10.440Z,7.17
2018-09-01T20:54:37.744Z,6.70
2018-09-01T20:57:05.116Z,6.93
2018-09-01T20:59:32.622Z,7.57
2018-09-01T21:01:59.855Z,7.37
2018-09-01T21:04:27.136Z,8.83
2018-09-01T21:06:54.376Z,8.63
2018-09-01T21:09:21.596Z,8.73
2018-09-01T21:11:48.840Z,9.10
2018-09-01T21:14:16.083Z,9.70
2018-09-01T21:16:43.413Z,10.73
2018-09-01T21:19:10.640Z,10.73
2018-09-01T21:21:37.876Z,10.43
2018-09-01T21:24:05.366Z,9.53
2018-09-01T21:26:32.703Z,9.00
2018-09-01T21:28:59.847Z,9.27
2018-09-01T21:31:27.080Z,8.67
2018-09-01T21:33:54.300Z,9.63
2018-09-01T21:36:21.576Z,9.40
2018-09-01T21:38:48.817Z,9.07
2018-09-01T21:41:16.027Z,9.20
2018-09-01T21:43:43.284Z,9.50
2018-09-01T21:46:10.633Z,8.27
2018-09-01T21:48:37.911Z,9.17
2018-09-01T21:51:05.142Z,8.73
2018-09-01T21:53:32.364Z,9.00
2018-09-01T21:55:59.632Z,9.23
2018-09-01T21:58:26.872Z,8.90
2018-09-01T22:00:59.493Z,8.10
2018-09-01T22:03:26.712Z,7.60
2018-09-01T22:05:53.945Z,8.40
2018-09-01T22:08:21.158Z,7.90
2018-09-01T22:10:48.388Z,8.33
2018-09-01T22:13:15.620Z,7.67
2018-09-01T22:15:42.824Z,8.60
2018-09-01T22:18:10.636Z,8.40
2018-09-01T22:20:37.882Z,8.70
2018-09-01T22:23:05.161Z,7.80
2018-09-01T22:25:32.351Z,9.30
2018-09-01T22:27:59.608Z,7.93
2018-09-01T22:30:26.824Z,8.40
2018-09-01T22:32:54.032Z,7.50
2018-09-01T22:35:21.871Z,8.03
2018-09-01T22:37:49.076Z,8.00
2018-09-01T22:40:16.284Z,8.00
2018-09-01T22:42:43.519Z,8.60
2018-09-01T22:45:10.805Z,9.30
2018-09-01T22:47:38.368Z,7.50
2018-09-01T22:50:05.611Z,8.33
2018-09-01T22:52:32.811Z,8.00
2018-09-01T22:55:00.039Z,8.00
2018-09-01T22:57:27.936Z,7.50
2018-09-01T22:59:55.142Z,8.03
2018-09-01T23:02:22.319Z,7.97
2018-09-01T23:04:49.516Z,8.57
2018-09-01T23:07:16.873Z,7.60
2018-09-01T23:09:44.303Z,7.70
2018-09-01T23:12:11.527Z,7.40
2018-09-01T23:14:39.414Z,8.33
2018-09-01T23:17:06.761Z,7.70
2018-09-01T23:19:33.967Z,7.77
2018-09-01T23:22:01.177Z,6.80
2018-09-01T23:24:28.383Z,7.43
2018-09-01T23:26:55.637Z,7.53
2018-09-01T23:29:22.869Z,6.60
2018-09-01T23:31:50.092Z,6.20
2018-09-01T23:34:17.492Z,7.30
2018-09-01T23:36:44.754Z,6.30
2018-09-01T23:39:12.024Z,6.27
2018-09-01T23:41:39.897Z,6.93
2018-09-01T23:44:07.235Z,6.87
2018-09-01T23:46:37.545Z,7.10
2018-09-01T23:49:04.864Z,6.97
2018-09-01T23:51:32.084Z,6.83
2018-09-01T23:53:59.348Z,7.43
2018-09-01T23:56:26.592Z,6.33
2018-09-01T23:58:53.906Z,6.70
